sensor_id;sensor_type;location;lat;lon;timestamp;temperature;humidity
38398;DHT22;24179;52.094;4.408;2023-08-08T00:00:41;17.70;99.90
38398;DHT22;24179;52.094;4.408;2023-08-08T00:03:42;17.70;99.90
38398;DHT22;24179;52.094;4.408;2023-08-08T00:06:42;17.60;99.90
38398;DHT22;24179;52.094;4.408;2023-08-08T00:09:43;17.60;99.90
38398;DHT22;24179;52.094;4.408;2023-08-08T00:12:43;17.60;99.90
38398;DHT22;24179;52.094;4.408;2023-08-08T00:15:46;17.50;99.90
38398;DHT22;24179;52.094;4.408;2023-08-08T00:18:47;17.60;99.90
38398;DHT22;24179;52.094;4.408;2023-08-08T00:21:50;17.40;99.90
38398;DHT22;24179;52.094;4.408;2023-08-08T00:24:50;17.40;99.90
38398;DHT22;24179;52.094;4.408;2023-08-08T00:27:53;17.40;99.90
38398;DHT22;24179;52.094;4.408;2023-08-08T00:30:56;17.30;99.90
38398;DHT22;24179;52.094;4.408;2023-08-08T00:33:56;17.30;99.90
38398;DHT22;24179;52.094;4.408;2023-08-08T00:36:57;17.30;99.90
38398;DHT22;24179;52.094;4.408;2023-08-08T00:39:57;17.30;99.90
38398;DHT22;24179;52.094;4.408;2023-08-08T00:42:58;17.20;99.90
38398;DHT22;24179;52.094;4.408;2023-08-08T00:45:58;17.10;99.90
38398;DHT22;24179;52.094;4.408;2023-08-08T00:48:59;17.10;99.90
38398;DHT22;24179;52.094;4.408;2023-08-08T00:51:59;17.00;99.90
38398;DHT22;24179;52.094;4.408;2023-08-08T00:55:00;17.00;99.90
38398;DHT22;24179;52.094;4.408;2023-08-08T00:58:01;17.00;99.90
38398;DHT22;24179;52.094;4.408;2023-08-08T01:01:02;17.10;99.90
38398;DHT22;24179;52.094;4.408;2023-08-08T01:04:03;17.10;99.90
38398;DHT22;24179;52.094;4.408;2023-08-08T01:07:10;17.20;99.90
38398;DHT22;24179;52.094;4.408;2023-08-08T01:10:13;17.10;99.90
38398;DHT22;24179;52.094;4.408;2023-08-08T01:13:18;17.10;99.90
38398;DHT22;24179;52.094;4.408;2023-08-08T01:16:20;17.10;99.90
38398;DHT22;24179;52.094;4.408;2023-08-08T01:19:23;17.10;99.90
38398;DHT22;24179;52.094;4.408;2023-08-08T01:22:27;17.10;99.90
38398;DHT22;24179;52.094;4.408;2023-08-08T01:25:30;17.10;99.90
38398;DHT22;24179;52.094;4.408;2023-08-08T01:28:31;17.10;99.90
38398;DHT22;24179;52.094;4.408;2023-08-08T01:31:32;17.10;99.90
38398;DHT22;24179;52.094;4.408;2023-08-08T01:34:33;17.10;99.90
38398;DHT22;24179;52.094;4.408;2023-08-08T01:37:38;17.00;99.90
38398;DHT22;24179;52.094;4.408;2023-08-08T01:40:40;17.00;99.90
38398;DHT22;24179;52.094;4.408;2023-08-08T01:43:41;17.00;99.90
38398;DHT22;24179;52.094;4.408;2023-08-08T01:46:42;17.00;99.90
38398;DHT22;24179;52.094;4.408;2023-08-08T01:49:42;17.00;99.90
38398;DHT22;24179;52.094;4.408;2023-08-08T01:52:43;17.00;99.90
38398;DHT22;24179;52.094;4.408;2023-08-08T01:55:43;17.00;99.90
38398;DHT22;24179;52.094;4.408;2023-08-08T01:58:44;16.90;99.90
38398;DHT22;24179;52.094;4.408;2023-08-08T02:01:44;16.90;99.90
38398;DHT22;24179;52.094;4.408;2023-08-08T02:04:50;17.00;99.90
38398;DHT22;24179;52.094;4.408;2023-08-08T02:07:51;16.90;99.90
38398;DHT22;24179;52.094;4.408;2023-08-08T02:10:51;16.90;99.90
38398;DHT22;24179;52.094;4.408;2023-08-08T02:13:52;16.90;99.90
38398;DHT22;24179;52.094;4.408;2023-08-08T02:16:52;16.90;99.90
38398;DHT22;24179;52.094;4.408;2023-08-08T02:19:53;16.90;99.90
38398;DHT22;24179;52.094;4.408;2023-08-08T02:22:53;16.90;99.90
38398;DHT22;24179;52.094;4.408;2023-08-08T02:25:54;16.90;99.90
38398;DHT22;24179;52.094;4.408;2023-08-08T02:28:54;16.90;99.90
38398;DHT22;24179;52.094;4.408;2023-08-08T02:31:55;16.90;99.90
38398;DHT22;24179;52.094;4.408;2023-08-08T02:34:55;16.90;99.90
38398;DHT22;24179;52.094;4.408;2023-08-08T02:37:56;16.80;99.90
38398;DHT22;24179;52.094;4.408;2023-08-08T02:40:56;16.70;99.90
38398;DHT22;24179;52.094;4.408;2023-08-08T02:43:57;16.70;99.90
38398;DHT22;24179;52.094;4.408;2023-08-08T02:46:58;16.60;99.90
38398;DHT22;24179;52.094;4.408;2023-08-08T02:50:01;16.50;99.90
38398;DHT22;24179;52.094;4.408;2023-08-08T02:53:02;16.40;99.90
38398;DHT22;24179;52.094;4.408;2023-08-08T02:56:05;16.40;99.90
38398;DHT22;24179;52.094;4.408;2023-08-08T02:59:06;16.30;99.90
38398;DHT22;24179;52.094;4.408;2023-08-08T03:02:13;16.20;99.90
38398;DHT22;24179;52.094;4.408;2023-08-08T03:05:14;16.20;99.90
38398;DHT22;24179;52.094;4.408;2023-08-08T03:08:14;16.30;99.90
38398;DHT22;24179;52.094;4.408;2023-08-08T03:11:15;16.20;99.90
38398;DHT22;24179;52.094;4.408;2023-08-08T03:14:15;16.30;99.90
38398;DHT22;24179;52.094;4.408;2023-08-08T03:17:15;16.30;99.90
38398;DHT22;24179;52.094;4.408;2023-08-08T03:20:16;16.30;99.90
38398;DHT22;24179;52.094;4.408;2023-08-08T03:23:17;16.70;99.90
38398;DHT22;24179;52.094;4.408;2023-08-08T03:26:17;16.40;99.90
38398;DHT22;24179;52.094;4.408;2023-08-08T03:29:18;16.40;99.90
38398;DHT22;24179;52.094;4.408;2023-08-08T03:32:18;16.40;99.90
38398;DHT22;24179;52.094;4.408;2023-08-08T03:35:19;16.40;99.90
38398;DHT22;24179;52.094;4.408;2023-08-08T03:38:19;16.30;99.90
38398;DHT22;24179;52.094;4.408;2023-08-08T03:41:22;16.20;99.90
38398;DHT22;24179;52.094;4.408;2023-08-08T03:44:23;16.20;99.90
38398;DHT22;24179;52.094;4.408;2023-08-08T03:47:23;16.20;99.90
38398;DHT22;24179;52.094;4.408;2023-08-08T03:50:24;16.20;99.90
38398;DHT22;24179;52.094;4.408;2023-08-08T03:53:24;16.10;99.90
38398;DHT22;24179;52.094;4.408;2023-08-08T03:56:25;16.00;99.90
38398;DHT22;24179;52.094;4.408;2023-08-08T03:59:25;16.00;99.90
38398;DHT22;24179;52.094;4.408;2023-08-08T04:02:29;16.00;99.90
38398;DHT22;24179;52.094;4.408;2023-08-08T04:05:29;16.00;99.90
38398;DHT22;24179;52.094;4.408;2023-08-08T04:08:30;16.00;99.90
38398;DHT22;24179;52.094;4.408;2023-08-08T04:11:30;15.90;99.90
38398;DHT22;24179;52.094;4.408;2023-08-08T04:14:31;15.90;99.90
38398;DHT22;24179;52.094;4.408;2023-08-08T04:17:31;15.90;99.90
38398;DHT22;24179;52.094;4.408;2023-08-08T04:20:32;15.80;99.90
38398;DHT22;24179;52.094;4.408;2023-08-08T04:23:33;15.90;99.90
38398;DHT22;24179;52.094;4.408;2023-08-08T04:26:34;15.90;99.90
38398;DHT22;24179;52.094;4.408;2023-08-08T04:29:34;15.90;99.90
38398;DHT22;24179;52.094;4.408;2023-08-08T04:32:35;16.00;99.90
38398;DHT22;24179;52.094;4.408;2023-08-08T04:35:35;15.80;99.90
38398;DHT22;24179;52.094;4.408;2023-08-08T04:38:36;15.90;99.90
38398;DHT22;24179;52.094;4.408;2023-08-08T04:41:36;15.90;99.90
38398;DHT22;24179;52.094;4.408;2023-08-08T04:44:37;16.00;99.90
38398;DHT22;24179;52.094;4.408;2023-08-08T04:47:37;16.00;99.90
38398;DHT22;24179;52.094;4.408;2023-08-08T04:50:38;16.10;99.90
38398;DHT22;24179;52.094;4.408;2023-08-08T04:53:44;16.10;99.90
38398;DHT22;24179;52.094;4.408;2023-08-08T04:56:44;16.00;99.90
38398;DHT22;24179;52.094;4.408;2023-08-08T04:59:48;16.10;99.90
38398;DHT22;24179;52.094;4.408;2023-08-08T05:02:49;16.00;99.90
38398;DHT22;24179;52.094;4.408;2023-08-08T05:05:49;16.00;99.90
38398;DHT22;24179;52.094;4.408;2023-08-08T05:08:51;16.00;99.90
38398;DHT22;24179;52.094;4.408;2023-08-08T05:11:52;16.00;99.90
38398;DHT22;24179;52.094;4.408;2023-08-08T05:14:53;16.00;99.90
38398;DHT22;24179;52.094;4.408;2023-08-08T05:17:53;16.00;99.90
38398;DHT22;24179;52.094;4.408;2023-08-08T05:20:55;15.90;99.90
38398;DHT22;24179;52.094;4.408;2023-08-08T05:23:55;15.90;99.90
38398;DHT22;24179;52.094;4.408;2023-08-08T05:26:56;16.00;99.90
38398;DHT22;24179;52.094;4.408;2023-08-08T05:29:56;16.00;99.90
38398;DHT22;24179;52.094;4.408;2023-08-08T05:32:57;16.00;99.90
38398;DHT22;24179;52.094;4.408;2023-08-08T05:35:57;16.00;99.90
38398;DHT22;24179;52.094;4.408;2023-08-08T05:38:58;16.00;99.90
38398;DHT22;24179;52.094;4.408;2023-08-08T05:41:58;16.00;99.90
38398;DHT22;24179;52.094;4.408;2023-08-08T05:44:59;16.00;99.90
38398;DHT22;24179;52.094;4.408;2023-08-08T05:48:08;16.00;99.90
38398;DHT22;24179;52.094;4.408;2023-08-08T05:51:12;16.10;99.90
38398;DHT22;24179;52.094;4.408;2023-08-08T05:54:12;16.20;99.90
38398;DHT22;24179;52.094;4.408;2023-08-08T05:57:14;16.40;99.90
38398;DHT22;24179;52.094;4.408;2023-08-08T06:00:15;16.50;99.90
38398;DHT22;24179;52.094;4.408;2023-08-08T06:03:15;16.60;99.90
38398;DHT22;24179;52.094;4.408;2023-08-08T06:06:16;16.80;99.90
38398;DHT22;24179;52.094;4.408;2023-08-08T06:09:16;16.80;99.90
38398;DHT22;24179;52.094;4.408;2023-08-08T06:12:17;16.80;99.90
38398;DHT22;24179;52.094;4.408;2023-08-08T06:15:17;16.70;99.90
38398;DHT22;24179;52.094;4.408;2023-08-08T06:18:18;16.70;99.90
38398;DHT22;24179;52.094;4.408;2023-08-08T06:21:19;16.70;99.90
38398;DHT22;24179;52.094;4.408;2023-08-08T06:24:19;16.60;99.90
38398;DHT22;24179;52.094;4.408;2023-08-08T06:27:20;16.60;99.90
38398;DHT22;24179;52.094;4.408;2023-08-08T06:30:20;16.60;99.90
38398;DHT22;24179;52.094;4.408;2023-08-08T06:33:21;16.60;99.90
38398;DHT22;24179;52.094;4.408;2023-08-08T06:36:21;16.80;99.90
38398;DHT22;24179;52.094;4.408;2023-08-08T06:39:22;16.90;99.90
38398;DHT22;24179;52.094;4.408;2023-08-08T06:42:22;17.10;99.90
38398;DHT22;24179;52.094;4.408;2023-08-08T06:45:23;17.10;99.90
38398;DHT22;24179;52.094;4.408;2023-08-08T06:48:23;17.20;99.90
38398;DHT22;24179;52.094;4.408;2023-08-08T06:51:24;17.30;99.90
38398;DHT22;24179;52.094;4.408;2023-08-08T06:54:25;17.30;99.90
38398;DHT22;24179;52.094;4.408;2023-08-08T06:57:29;17.80;99.90
38398;DHT22;24179;52.094;4.408;2023-08-08T07:00:30;17.80;99.90
38398;DHT22;24179;52.094;4.408;2023-08-08T07:03:30;18.40;99.90
38398;DHT22;24179;52.094;4.408;2023-08-08T07:06:31;18.20;99.90
38398;DHT22;24179;52.094;4.408;2023-08-08T07:09:31;17.90;99.90
38398;DHT22;24179;52.094;4.408;2023-08-08T07:12:33;17.80;99.90
38398;DHT22;24179;52.094;4.408;2023-08-08T07:15:33;17.90;99.90
38398;DHT22;24179;52.094;4.408;2023-08-08T07:18:34;18.30;99.90
38398;DHT22;24179;52.094;4.408;2023-08-08T07:21:35;18.10;99.90
38398;DHT22;24179;52.094;4.408;2023-08-08T07:24:35;17.90;99.90
38398;DHT22;24179;52.094;4.408;2023-08-08T07:27:36;18.30;99.90
38398;DHT22;24179;52.094;4.408;2023-08-08T07:30:36;18.50;99.90
38398;DHT22;24179;52.094;4.408;2023-08-08T07:33:37;18.70;99.90
38398;DHT22;24179;52.094;4.408;2023-08-08T07:36:37;18.70;99.90
38398;DHT22;24179;52.094;4.408;2023-08-08T07:39:38;18.70;99.90
38398;DHT22;24179;52.094;4.408;2023-08-08T07:42:38;18.80;99.90
38398;DHT22;24179;52.094;4.408;2023-08-08T07:45:39;18.80;99.90
38398;DHT22;24179;52.094;4.408;2023-08-08T07:48:39;18.90;99.90
38398;DHT22;24179;52.094;4.408;2023-08-08T07:51:40;18.50;99.90
38398;DHT22;24179;52.094;4.408;2023-08-08T07:54:41;18.60;99.90
38398;DHT22;24179;52.094;4.408;2023-08-08T07:57:41;18.60;99.90
38398;DHT22;24179;52.094;4.408;2023-08-08T08:00:42;18.40;99.90
38398;DHT22;24179;52.094;4.408;2023-08-08T08:03:42;18.40;99.90
38398;DHT22;24179;52.094;4.408;2023-08-08T08:06:43;18.90;99.90
38398;DHT22;24179;52.094;4.408;2023-08-08T08:09:43;19.40;99.90
38398;DHT22;24179;52.094;4.408;2023-08-08T08:12:44;20.00;99.90
38398;DHT22;24179;52.094;4.408;2023-08-08T08:15:44;20.70;99.90
38398;DHT22;24179;52.094;4.408;2023-08-08T08:18:45;20.70;99.90
38398;DHT22;24179;52.094;4.408;2023-08-08T08:21:45;19.70;99.90
38398;DHT22;24179;52.094;4.408;2023-08-08T08:24:46;19.70;99.90
38398;DHT22;24179;52.094;4.408;2023-08-08T08:27:46;19.50;99.90
38398;DHT22;24179;52.094;4.408;2023-08-08T08:30:47;19.30;99.90
38398;DHT22;24179;52.094;4.408;2023-08-08T08:33:48;19.00;99.90
38398;DHT22;24179;52.094;4.408;2023-08-08T08:36:48;19.40;99.90
38398;DHT22;24179;52.094;4.408;2023-08-08T08:39:49;19.70;99.90
38398;DHT22;24179;52.094;4.408;2023-08-08T08:42:49;20.00;99.90
38398;DHT22;24179;52.094;4.408;2023-08-08T08:45:51;20.70;99.90
38398;DHT22;24179;52.094;4.408;2023-08-08T08:48:52;20.80;99.90
38398;DHT22;24179;52.094;4.408;2023-08-08T08:51:55;20.40;99.90
38398;DHT22;24179;52.094;4.408;2023-08-08T08:54:56;20.80;99.90
38398;DHT22;24179;52.094;4.408;2023-08-08T08:57:57;20.90;99.90
38398;DHT22;24179;52.094;4.408;2023-08-08T09:00:57;20.90;99.90
38398;DHT22;24179;52.094;4.408;2023-08-08T09:03:58;21.10;99.90
38398;DHT22;24179;52.094;4.408;2023-08-08T09:06:59;20.40;99.90
38398;DHT22;24179;52.094;4.408;2023-08-08T09:09:59;19.40;99.90
38398;DHT22;24179;52.094;4.408;2023-08-08T09:13:00;18.50;99.90
38398;DHT22;24179;52.094;4.408;2023-08-08T09:16:00;18.70;99.90
38398;DHT22;24179;52.094;4.408;2023-08-08T09:19:01;18.80;99.90
38398;DHT22;24179;52.094;4.408;2023-08-08T09:22:03;19.50;99.90
38398;DHT22;24179;52.094;4.408;2023-08-08T09:25:04;18.80;99.90
38398;DHT22;24179;52.094;4.408;2023-08-08T09:28:05;19.20;99.90
38398;DHT22;24179;52.094;4.408;2023-08-08T09:31:05;19.00;99.90
38398;DHT22;24179;52.094;4.408;2023-08-08T09:34:06;19.10;99.90
38398;DHT22;24179;52.094;4.408;2023-08-08T09:37:06;19.30;99.90
38398;DHT22;24179;52.094;4.408;2023-08-08T09:40:07;19.50;99.90
38398;DHT22;24179;52.094;4.408;2023-08-08T09:43:11;19.60;99.90
38398;DHT22;24179;52.094;4.408;2023-08-08T09:46:12;20.60;99.90
38398;DHT22;24179;52.094;4.408;2023-08-08T09:49:12;21.30;99.90
38398;DHT22;24179;52.094;4.408;2023-08-08T09:52:14;21.10;99.90
38398;DHT22;24179;52.094;4.408;2023-08-08T09:55:15;21.10;99.90
38398;DHT22;24179;52.094;4.408;2023-08-08T09:58:15;21.50;99.90
38398;DHT22;24179;52.094;4.408;2023-08-08T10:01:16;21.20;99.90
38398;DHT22;24179;52.094;4.408;2023-08-08T10:04:17;21.10;99.90
38398;DHT22;24179;52.094;4.408;2023-08-08T10:07:17;21.40;99.90
38398;DHT22;24179;52.094;4.408;2023-08-08T10:10:18;20.80;99.90
38398;DHT22;24179;52.094;4.408;2023-08-08T10:13:19;20.40;99.90
38398;DHT22;24179;52.094;4.408;2023-08-08T10:16:21;20.50;99.90
38398;DHT22;24179;52.094;4.408;2023-08-08T10:19:22;20.60;99.90
38398;DHT22;24179;52.094;4.408;2023-08-08T10:22:26;20.50;99.90
38398;DHT22;24179;52.094;4.408;2023-08-08T10:25:27;20.40;99.90
38398;DHT22;24179;52.094;4.408;2023-08-08T10:28:28;20.30;99.90
38398;DHT22;24179;52.094;4.408;2023-08-08T10:31:34;19.90;99.90
38398;DHT22;24179;52.094;4.408;2023-08-08T10:34:42;20.10;99.90
38398;DHT22;24179;52.094;4.408;2023-08-08T10:37:51;20.60;99.90
38398;DHT22;24179;52.094;4.408;2023-08-08T10:40:59;21.20;99.90
38398;DHT22;24179;52.094;4.408;2023-08-08T10:44:00;19.80;99.90
38398;DHT22;24179;52.094;4.408;2023-08-08T10:47:00;20.30;99.90
38398;DHT22;24179;52.094;4.408;2023-08-08T10:50:06;19.50;99.90
38398;DHT22;24179;52.094;4.408;2023-08-08T10:53:11;19.80;99.90
38398;DHT22;24179;52.094;4.408;2023-08-08T10:56:12;21.70;99.90
38398;DHT22;24179;52.094;4.408;2023-08-08T10:59:14;22.70;99.90
38398;DHT22;24179;52.094;4.408;2023-08-08T11:02:16;22.90;99.90
38398;DHT22;24179;52.094;4.408;2023-08-08T11:05:19;23.70;99.90
38398;DHT22;24179;52.094;4.408;2023-08-08T11:08:23;22.70;99.80
38398;DHT22;24179;52.094;4.408;2023-08-08T11:11:23;22.50;99.90
38398;DHT22;24179;52.094;4.408;2023-08-08T11:14:24;21.00;99.90
38398;DHT22;24179;52.094;4.408;2023-08-08T11:17:25;20.20;99.90
38398;DHT22;24179;52.094;4.408;2023-08-08T11:20:30;20.50;99.90
38398;DHT22;24179;52.094;4.408;2023-08-08T11:23:32;21.30;99.90
38398;DHT22;24179;52.094;4.408;2023-08-08T11:26:39;21.00;99.90
38398;DHT22;24179;52.094;4.408;2023-08-08T11:29:40;21.20;99.90
38398;DHT22;24179;52.094;4.408;2023-08-08T11:32:40;22.30;99.90
38398;DHT22;24179;52.094;4.408;2023-08-08T11:35:45;23.10;99.50
38398;DHT22;24179;52.094;4.408;2023-08-08T11:38:49;22.10;98.50
38398;DHT22;24179;52.094;4.408;2023-08-08T11:41:50;23.00;99.00
38398;DHT22;24179;52.094;4.408;2023-08-08T11:44:51;22.00;99.90
38398;DHT22;24179;52.094;4.408;2023-08-08T11:47:53;22.40;99.90
38398;DHT22;24179;52.094;4.408;2023-08-08T11:50:53;22.90;99.80
38398;DHT22;24179;52.094;4.408;2023-08-08T11:53:57;22.30;99.10
38398;DHT22;24179;52.094;4.408;2023-08-08T11:57:00;22.20;99.90
38398;DHT22;24179;52.094;4.408;2023-08-08T12:00:08;22.50;99.90
38398;DHT22;24179;52.094;4.408;2023-08-08T12:03:09;22.30;99.90
38398;DHT22;24179;52.094;4.408;2023-08-08T12:06:14;23.60;99.90
38398;DHT22;24179;52.094;4.408;2023-08-08T12:09:15;23.00;99.20
38398;DHT22;24179;52.094;4.408;2023-08-08T12:12:15;21.60;99.90
38398;DHT22;24179;52.094;4.408;2023-08-08T12:15:16;21.70;99.90
38398;DHT22;24179;52.094;4.408;2023-08-08T12:18:17;22.20;99.90
38398;DHT22;24179;52.094;4.408;2023-08-08T12:21:18;22.30;99.90
38398;DHT22;24179;52.094;4.408;2023-08-08T12:24:18;22.00;99.90
38398;DHT22;24179;52.094;4.408;2023-08-08T12:27:19;22.00;99.90
38398;DHT22;24179;52.094;4.408;2023-08-08T12:30:19;21.60;99.90
38398;DHT22;24179;52.094;4.408;2023-08-08T12:33:20;20.60;99.90
38398;DHT22;24179;52.094;4.408;2023-08-08T12:36:21;20.70;99.90
38398;DHT22;24179;52.094;4.408;2023-08-08T12:39:21;20.10;99.90
38398;DHT22;24179;52.094;4.408;2023-08-08T12:42:22;20.30;99.90
38398;DHT22;24179;52.094;4.408;2023-08-08T12:45:23;20.90;99.90
38398;DHT22;24179;52.094;4.408;2023-08-08T12:48:24;20.70;99.90
38398;DHT22;24179;52.094;4.408;2023-08-08T12:51:24;20.90;99.90
38398;DHT22;24179;52.094;4.408;2023-08-08T12:54:25;21.20;99.90
38398;DHT22;24179;52.094;4.408;2023-08-08T12:57:26;22.00;99.90
38398;DHT22;24179;52.094;4.408;2023-08-08T13:00:26;22.20;99.90
38398;DHT22;24179;52.094;4.408;2023-08-08T13:03:30;21.20;99.90
38398;DHT22;24179;52.094;4.408;2023-08-08T13:06:33;21.40;99.90
38398;DHT22;24179;52.094;4.408;2023-08-08T13:09:34;22.30;99.90
38398;DHT22;24179;52.094;4.408;2023-08-08T13:12:35;23.50;99.60
38398;DHT22;24179;52.094;4.408;2023-08-08T13:15:35;23.60;99.10
38398;DHT22;24179;52.094;4.408;2023-08-08T13:18:36;22.60;98.70
38398;DHT22;24179;52.094;4.408;2023-08-08T13:21:37;21.80;99.70
38398;DHT22;24179;52.094;4.408;2023-08-08T13:24:37;22.10;99.90
38398;DHT22;24179;52.094;4.408;2023-08-08T13:27:38;22.70;98.40
38398;DHT22;24179;52.094;4.408;2023-08-08T13:30:38;23.10;98.10
38398;DHT22;24179;52.094;4.408;2023-08-08T13:33:40;23.10;98.50
38398;DHT22;24179;52.094;4.408;2023-08-08T13:36:40;23.30;97.90
38398;DHT22;24179;52.094;4.408;2023-08-08T13:39:41;23.10;97.30
38398;DHT22;24179;52.094;4.408;2023-08-08T13:42:41;22.70;99.10
38398;DHT22;24179;52.094;4.408;2023-08-08T13:45:42;22.70;99.50
38398;DHT22;24179;52.094;4.408;2023-08-08T13:48:42;23.00;98.40
38398;DHT22;24179;52.094;4.408;2023-08-08T13:51:43;22.80;98.50
38398;DHT22;24179;52.094;4.408;2023-08-08T13:54:44;22.80;97.90
38398;DHT22;24179;52.094;4.408;2023-08-08T13:57:44;23.20;98.20
38398;DHT22;24179;52.094;4.408;2023-08-08T14:00:44;22.60;98.90
38398;DHT22;24179;52.094;4.408;2023-08-08T14:03:45;23.10;99.90
38398;DHT22;24179;52.094;4.408;2023-08-08T14:06:46;24.30;97.30
38398;DHT22;24179;52.094;4.408;2023-08-08T14:09:49;23.40;97.70
38398;DHT22;24179;52.094;4.408;2023-08-08T14:12:49;23.20;99.60
38398;DHT22;24179;52.094;4.408;2023-08-08T14:15:50;24.00;98.70
38398;DHT22;24179;52.094;4.408;2023-08-08T14:18:52;23.90;97.10
38398;DHT22;24179;52.094;4.408;2023-08-08T14:21:52;24.60;98.00
38398;DHT22;24179;52.094;4.408;2023-08-08T14:24:52;24.40;96.50
38398;DHT22;24179;52.094;4.408;2023-08-08T14:27:53;22.90;97.10
38398;DHT22;24179;52.094;4.408;2023-08-08T14:30:53;21.60;98.60
38398;DHT22;24179;52.094;4.408;2023-08-08T14:33:54;20.70;99.60
38398;DHT22;24179;52.094;4.408;2023-08-08T14:36:54;20.50;99.90
38398;DHT22;24179;52.094;4.408;2023-08-08T14:39:55;20.70;99.90
38398;DHT22;24179;52.094;4.408;2023-08-08T14:42:55;20.90;99.90
38398;DHT22;24179;52.094;4.408;2023-08-08T14:45:56;21.00;99.90
38398;DHT22;24179;52.094;4.408;2023-08-08T14:48:56;20.80;99.90
38398;DHT22;24179;52.094;4.408;2023-08-08T14:51:57;20.40;99.90
38398;DHT22;24179;52.094;4.408;2023-08-08T14:54:58;19.90;99.90
38398;DHT22;24179;52.094;4.408;2023-08-08T14:57:58;19.90;99.90
38398;DHT22;24179;52.094;4.408;2023-08-08T15:00:59;19.70;99.90
38398;DHT22;24179;52.094;4.408;2023-08-08T15:04:10;19.50;99.90
38398;DHT22;24179;52.094;4.408;2023-08-08T15:07:10;19.10;99.90
38398;DHT22;24179;52.094;4.408;2023-08-08T15:10:11;19.00;99.90
38398;DHT22;24179;52.094;4.408;2023-08-08T15:13:11;18.90;99.90
38398;DHT22;24179;52.094;4.408;2023-08-08T15:16:12;18.90;99.90
38398;DHT22;24179;52.094;4.408;2023-08-08T15:19:14;19.20;99.90
38398;DHT22;24179;52.094;4.408;2023-08-08T15:22:15;19.20;99.90
38398;DHT22;24179;52.094;4.408;2023-08-08T15:25:15;19.20;99.90
38398;DHT22;24179;52.094;4.408;2023-08-08T15:28:16;19.10;99.90
38398;DHT22;24179;52.094;4.408;2023-08-08T15:31:16;19.00;99.90
38398;DHT22;24179;52.094;4.408;2023-08-08T15:34:17;18.80;99.90
38398;DHT22;24179;52.094;4.408;2023-08-08T15:37:17;18.70;99.90
38398;DHT22;24179;52.094;4.408;2023-08-08T15:40:18;18.70;99.90
38398;DHT22;24179;52.094;4.408;2023-08-08T15:43:18;18.50;99.90
38398;DHT22;24179;52.094;4.408;2023-08-08T15:46:20;18.70;99.90
38398;DHT22;24179;52.094;4.408;2023-08-08T15:49:20;18.50;99.90
38398;DHT22;24179;52.094;4.408;2023-08-08T15:52:21;18.40;99.90
38398;DHT22;24179;52.094;4.408;2023-08-08T15:55:21;18.40;99.90
38398;DHT22;24179;52.094;4.408;2023-08-08T15:58:22;18.40;99.90
38398;DHT22;24179;52.094;4.408;2023-08-08T16:01:22;18.40;99.90
38398;DHT22;24179;52.094;4.408;2023-08-08T16:04:23;18.00;99.90
38398;DHT22;24179;52.094;4.408;2023-08-08T16:07:23;18.10;99.90
38398;DHT22;24179;52.094;4.408;2023-08-08T16:10:27;18.30;99.90
38398;DHT22;24179;52.094;4.408;2023-08-08T16:13:27;18.40;99.90
38398;DHT22;24179;52.094;4.408;2023-08-08T16:16:28;18.00;99.90
38398;DHT22;24179;52.094;4.408;2023-08-08T16:19:28;18.00;99.90
38398;DHT22;24179;52.094;4.408;2023-08-08T16:22:29;18.00;99.90
38398;DHT22;24179;52.094;4.408;2023-08-08T16:25:29;17.90;99.90
38398;DHT22;24179;52.094;4.408;2023-08-08T16:28:29;17.70;99.90
38398;DHT22;24179;52.094;4.408;2023-08-08T16:31:30;17.60;99.90
38398;DHT22;24179;52.094;4.408;2023-08-08T16:34:31;17.50;99.90
38398;DHT22;24179;52.094;4.408;2023-08-08T16:37:34;17.50;99.90
38398;DHT22;24179;52.094;4.408;2023-08-08T16:40:34;17.50;99.90
38398;DHT22;24179;52.094;4.408;2023-08-08T16:43:35;17.60;99.90
38398;DHT22;24179;52.094;4.408;2023-08-08T16:46:36;17.60;99.90
38398;DHT22;24179;52.094;4.408;2023-08-08T16:49:37;17.70;99.90
38398;DHT22;24179;52.094;4.408;2023-08-08T16:52:37;17.80;99.90
38398;DHT22;24179;52.094;4.408;2023-08-08T16:55:38;17.80;99.90
38398;DHT22;24179;52.094;4.408;2023-08-08T16:58:38;17.80;99.90
38398;DHT22;24179;52.094;4.408;2023-08-08T17:01:40;17.80;99.90
38398;DHT22;24179;52.094;4.408;2023-08-08T17:04:43;17.90;99.90
38398;DHT22;24179;52.094;4.408;2023-08-08T17:07:43;17.60;99.90
38398;DHT22;24179;52.094;4.408;2023-08-08T17:10:44;17.40;99.90
38398;DHT22;24179;52.094;4.408;2023-08-08T17:13:45;17.10;99.90
38398;DHT22;24179;52.094;4.408;2023-08-08T17:16:47;16.60;99.90
38398;DHT22;24179;52.094;4.408;2023-08-08T17:19:48;16.40;99.90
38398;DHT22;24179;52.094;4.408;2023-08-08T17:22:48;16.10;99.90
38398;DHT22;24179;52.094;4.408;2023-08-08T17:25:48;15.90;99.90
38398;DHT22;24179;52.094;4.408;2023-08-08T17:28:49;15.80;99.90
38398;DHT22;24179;52.094;4.408;2023-08-08T17:31:50;15.90;99.90
38398;DHT22;24179;52.094;4.408;2023-08-08T17:34:50;15.90;99.90
38398;DHT22;24179;52.094;4.408;2023-08-08T17:37:51;16.10;99.90
38398;DHT22;24179;52.094;4.408;2023-08-08T17:40:51;16.10;99.90
38398;DHT22;24179;52.094;4.408;2023-08-08T17:43:52;16.10;99.90
38398;DHT22;24179;52.094;4.408;2023-08-08T17:46:54;16.00;99.90
38398;DHT22;24179;52.094;4.408;2023-08-08T17:49:54;16.00;99.90
38398;DHT22;24179;52.094;4.408;2023-08-08T17:52:54;15.80;99.90
38398;DHT22;24179;52.094;4.408;2023-08-08T17:55:55;15.70;99.90
38398;DHT22;24179;52.094;4.408;2023-08-08T17:58:55;15.70;99.90
38398;DHT22;24179;52.094;4.408;2023-08-08T18:01:56;15.60;99.90
38398;DHT22;24179;52.094;4.408;2023-08-08T18:04:57;15.50;99.90
38398;DHT22;24179;52.094;4.408;2023-08-08T18:07:57;15.40;99.90
38398;DHT22;24179;52.094;4.408;2023-08-08T18:10:58;15.40;99.90
38398;DHT22;24179;52.094;4.408;2023-08-08T18:13:58;15.30;99.90
38398;DHT22;24179;52.094;4.408;2023-08-08T18:16:58;15.30;99.90
38398;DHT22;24179;52.094;4.408;2023-08-08T18:19:59;15.40;99.90
38398;DHT22;24179;52.094;4.408;2023-08-08T18:23:00;15.40;99.90
38398;DHT22;24179;52.094;4.408;2023-08-08T18:26:00;15.60;99.90
38398;DHT22;24179;52.094;4.408;2023-08-08T18:29:03;15.70;99.90
38398;DHT22;24179;52.094;4.408;2023-08-08T18:32:03;15.80;99.90
38398;DHT22;24179;52.094;4.408;2023-08-08T18:35:04;15.80;99.90
38398;DHT22;24179;52.094;4.408;2023-08-08T18:38:05;15.80;99.90
38398;DHT22;24179;52.094;4.408;2023-08-08T18:41:05;15.70;99.90
38398;DHT22;24179;52.094;4.408;2023-08-08T18:44:06;15.80;99.90
38398;DHT22;24179;52.094;4.408;2023-08-08T18:47:06;15.80;99.90
38398;DHT22;24179;52.094;4.408;2023-08-08T18:50:07;15.80;99.90
38398;DHT22;24179;52.094;4.408;2023-08-08T18:53:08;15.80;99.90
38398;DHT22;24179;52.094;4.408;2023-08-08T18:56:08;15.80;99.90
38398;DHT22;24179;52.094;4.408;2023-08-08T18:59:09;15.80;99.90
38398;DHT22;24179;52.094;4.408;2023-08-08T19:02:09;15.70;99.90